createdAt,value
2019-02-26T00:01:21.040Z,20.40
2019-02-26T00:03:50.803Z,19.60
2019-02-26T00:06:22.906Z,20.03
2019-02-26T00:08:59.532Z,19.90
2019-02-26T00:11:40.146Z,20.87
2019-02-26T00:14:13.208Z,20.27
2019-02-26T00:16:51.383Z,20.57
2019-02-26T00:19:43.052Z,20.07
2019-02-26T00:22:32.324Z,19.53
2019-02-26T00:25:03.831Z,19.50
2019-02-26T00:27:37.988Z,20.43
2019-02-26T00:30:11.289Z,22.13
2019-02-26T00:32:45.425Z,22.00
2019-02-26T00:35:23.567Z,21.60
2019-02-26T00:38:23.091Z,20.40
2019-02-26T00:41:03.856Z,20.73
2019-02-26T00:46:14.102Z,19.97
2019-02-26T00:48:45.686Z,22.20
2019-02-26T00:51:20.933Z,22.80
2019-02-26T00:53:55.044Z,20.43
2019-02-26T00:56:25.238Z,22.50
2019-02-26T00:59:06.008Z,21.57
2019-02-26T01:01:48.247Z,20.60
2019-02-26T01:07:08.948Z,20.47
2019-02-26T01:12:47.408Z,21.23
2019-02-26T01:15:42.277Z,19.40
2019-02-26T01:18:13.393Z,18.80
2019-02-26T01:20:50.324Z,20.37
2019-02-26T01:23:23.780Z,20.13
2019-02-26T01:25:54.366Z,21.30
2019-02-26T01:28:26.981Z,19.60
2019-02-26T01:31:09.040Z,20.47
2019-02-26T01:33:52.896Z,20.80
2019-02-26T01:36:28.701Z,21.23
2019-02-26T01:39:00.749Z,21.33
2019-02-26T01:41:58.803Z,20.90
2019-02-26T01:44:39.839Z,19.87
2019-02-26T01:47:10.133Z,21.63
2019-02-26T01:49:46.544Z,20.97
2019-02-26T01:52:31.669Z,21.50
2019-02-26T01:55:03.730Z,22.10
2019-02-26T01:57:52.253Z,21.77
2019-02-26T02:00:25.958Z,22.37
2019-02-26T02:03:14.740Z,23.20
2019-02-26T02:05:53.001Z,24.23
2019-02-26T02:08:23.010Z,24.93
2019-02-26T02:10:59.840Z,23.70
2019-02-26T02:16:35.427Z,26.77
2019-02-26T02:19:09.148Z,27.43
2019-02-26T02:21:49.298Z,23.93
2019-02-26T02:24:28.614Z,22.93
2019-02-26T02:27:09.983Z,23.03
2019-02-26T02:29:50.313Z,23.30
2019-02-26T02:32:23.448Z,22.27
2019-02-26T02:35:00.618Z,21.40
2019-02-26T02:37:30.059Z,20.70
2019-02-26T02:40:01.487Z,21.37
2019-02-26T02:42:35.140Z,19.93
2019-02-26T02:45:23.894Z,19.37
2019-02-26T02:51:13.711Z,19.17
2019-02-26T02:53:51.095Z,22.30
2019-02-26T02:56:22.051Z,21.70
2019-02-26T02:58:56.738Z,20.23
2019-02-26T03:01:46.411Z,19.73
2019-02-26T03:04:19.652Z,21.57
2019-02-26T03:06:52.823Z,20.10
2019-02-26T03:09:43.068Z,20.10
2019-02-26T03:12:15.011Z,23.20
2019-02-26T03:14:45.751Z,21.43
2019-02-26T03:17:18.174Z,21.63
2019-02-26T03:19:58.643Z,21.57
2019-02-26T03:22:29.880Z,25.50
2019-02-26T03:25:05.904Z,20.40
2019-02-26T03:27:40.112Z,22.13
2019-02-26T03:30:10.209Z,21.13
2019-02-26T03:32:41.220Z,18.57
2019-02-26T03:35:10.256Z,21.70
2019-02-26T03:37:40.042Z,21.10
2019-02-26T03:40:11.703Z,25.27
2019-02-26T03:42:41.621Z,25.47
2019-02-26T03:45:13.666Z,23.20
2019-02-26T03:47:42.401Z,25.57
2019-02-26T03:50:15.370Z,26.23
2019-02-26T03:52:45.653Z,22.70
2019-02-26T03:55:18.888Z,22.43
2019-02-26T03:57:47.376Z,25.60
2019-02-26T04:00:19.907Z,24.40
2019-02-26T04:02:51.483Z,26.67
2019-02-26T04:05:19.790Z,28.70
2019-02-26T04:07:55.002Z,28.43
2019-02-26T04:10:20.447Z,28.63
2019-02-26T04:12:52.357Z,26.80
2019-02-26T04:15:24.313Z,23.47
2019-02-26T04:17:51.112Z,23.83
2019-02-26T04:20:20.576Z,22.03
2019-02-26T04:22:52.352Z,21.30
2019-02-26T04:25:27.010Z,20.57
2019-02-26T04:27:56.376Z,19.60
2019-02-26T04:30:26.212Z,21.17
2019-02-26T04:32:57.793Z,20.47
2019-02-26T04:35:27.782Z,20.57
2019-02-26T04:38:01.600Z,20.27
2019-02-26T04:40:36.345Z,22.30
2019-02-26T04:43:08.266Z,21.47
2019-02-26T04:45:40.348Z,19.03
2019-02-26T04:48:14.748Z,22.17
2019-02-26T04:50:44.527Z,21.20
2019-02-26T04:53:15.090Z,20.30
2019-02-26T04:55:44.869Z,20.30
2019-02-26T04:58:15.570Z,20.10
2019-02-26T05:00:44.428Z,17.93
2019-02-26T05:03:14.900Z,19.33
2019-02-26T05:05:44.425Z,18.57
2019-02-26T05:08:14.924Z,18.53
2019-02-26T05:10:43.764Z,19.00
2019-02-26T05:13:12.561Z,18.73
2019-02-26T05:15:43.348Z,21.17
2019-02-26T05:18:11.961Z,19.17
2019-02-26T05:20:43.108Z,18.83
2019-02-26T05:23:11.501Z,18.60
2019-02-26T05:25:42.991Z,18.10
2019-02-26T05:28:14.041Z,16.63
2019-02-26T05:30:43.864Z,18.70
2019-02-26T05:33:11.936Z,20.60
2019-02-26T05:35:43.341Z,19.00
2019-02-26T05:38:11.234Z,17.70
2019-02-26T05:40:42.471Z,20.10
2019-02-26T05:43:10.508Z,18.07
2019-02-26T05:45:39.357Z,19.50
2019-02-26T05:48:08.210Z,18.67
2019-02-26T05:50:38.451Z,17.93
2019-02-26T05:53:10.455Z,18.97
2019-02-26T05:55:38.231Z,18.20
2019-02-26T05:58:07.939Z,19.50
2019-02-26T06:00:37.610Z,18.60
2019-02-26T06:03:09.530Z,19.80
2019-02-26T06:05:41.160Z,20.63
2019-02-26T06:08:08.612Z,18.20
2019-02-26T06:10:37.497Z,19.20
2019-02-26T06:13:07.617Z,20.17
2019-02-26T06:15:36.570Z,17.70
2019-02-26T06:18:05.489Z,20.13
2019-02-26T06:20:36.601Z,18.83
2019-02-26T06:23:04.756Z,21.50
2019-02-26T06:25:33.494Z,22.30
2019-02-26T06:28:04.878Z,22.60
2019-02-26T06:30:33.175Z,23.80
2019-02-26T06:33:04.138Z,23.27
2019-02-26T06:35:33.692Z,23.47
2019-02-26T06:38:04.518Z,24.67
2019-02-26T06:40:36.727Z,26.30
2019-02-26T06:43:04.606Z,28.10
2019-02-26T06:45:35.566Z,25.03
2019-02-26T06:48:05.529Z,28.87
2019-02-26T06:50:36.302Z,26.73
2019-02-26T06:53:08.532Z,26.93
2019-02-26T06:55:36.748Z,27.70
2019-02-26T06:58:08.352Z,22.80
2019-02-26T07:00:37.262Z,22.47
2019-02-26T07:03:05.958Z,28.97
2019-02-26T07:05:34.831Z,21.57
2019-02-26T07:08:04.810Z,19.40
2019-02-26T07:10:34.197Z,17.80
2019-02-26T07:13:05.068Z,16.67
2019-02-26T07:15:33.955Z,16.83
2019-02-26T07:18:06.778Z,15.60
2019-02-26T07:20:39.388Z,16.70
2019-02-26T07:23:05.777Z,15.77
2019-02-26T07:25:37.042Z,16.13
2019-02-26T07:28:06.271Z,15.70
2019-02-26T07:30:37.569Z,12.97
2019-02-26T07:33:08.037Z,14.93
2019-02-26T07:35:37.389Z,15.37
2019-02-26T07:38:08.149Z,17.23
2019-02-26T07:40:38.614Z,18.40
2019-02-26T07:43:09.830Z,19.73
2019-02-26T07:45:39.307Z,18.50
2019-02-26T07:48:08.064Z,17.60
2019-02-26T07:50:39.652Z,19.97
2019-02-26T07:53:07.351Z,17.93
2019-02-26T07:55:38.195Z,18.53
2019-02-26T07:58:09.198Z,20.73
2019-02-26T08:00:40.332Z,19.57
2019-02-26T08:03:08.355Z,17.57
2019-02-26T08:05:37.044Z,16.57
2019-02-26T08:08:06.141Z,16.17
2019-02-26T08:10:40.111Z,15.70
2019-02-26T08:13:08.062Z,13.90
2019-02-26T08:15:37.510Z,12.07
2019-02-26T08:18:06.924Z,12.20
2019-02-26T08:20:37.511Z,13.27
2019-02-26T08:23:06.263Z,12.60
2019-02-26T08:25:35.119Z,17.87
2019-02-26T08:28:03.945Z,13.30
2019-02-26T08:30:32.908Z,12.17
2019-02-26T08:33:06.754Z,12.97
2019-02-26T08:35:34.290Z,12.00
2019-02-26T08:38:05.668Z,10.87
2019-02-26T08:40:34.154Z,10.70
2019-02-26T08:43:02.996Z,10.43
2019-02-26T08:45:32.478Z,10.57
2019-02-26T08:48:01.351Z,10.73
2019-02-26T08:50:32.970Z,10.33
2019-02-26T08:53:00.778Z,10.13
2019-02-26T08:55:31.067Z,9.87
2019-02-26T08:58:01.895Z,9.13
2019-02-26T09:00:30.707Z,8.70
2019-02-26T09:03:01.138Z,9.67
2019-02-26T09:05:34.252Z,9.87
2019-02-26T09:08:03.513Z,9.00
2019-02-26T09:10:32.352Z,9.40
2019-02-26T09:13:01.066Z,8.70
2019-02-26T09:15:31.359Z,8.30
2019-02-26T09:18:00.424Z,7.70
2019-02-26T09:20:30.731Z,7.90
2019-02-26T09:23:01.412Z,7.50
2019-02-26T09:25:33.918Z,7.13
2019-02-26T09:28:02.256Z,8.17
2019-02-26T09:30:35.831Z,7.90
2019-02-26T09:33:06.422Z,7.97
2019-02-26T09:35:36.551Z,8.27
2019-02-26T09:38:06.356Z,8.43
2019-02-26T09:40:35.883Z,8.93
2019-02-26T09:43:06.274Z,7.70
2019-02-26T09:45:35.444Z,7.50
2019-02-26T09:48:04.493Z,7.50
2019-02-26T09:50:33.196Z,7.40
2019-02-26T09:53:03.673Z,8.10
2019-02-26T09:55:32.536Z,6.83
2019-02-26T09:58:02.537Z,7.00
2019-02-26T10:00:31.548Z,8.30
2019-02-26T10:03:02.531Z,8.30
2019-02-26T10:05:32.067Z,7.93
2019-02-26T10:08:04.822Z,8.13
2019-02-26T10:10:33.687Z,7.70
2019-02-26T10:13:04.606Z,8.10
2019-02-26T10:15:34.641Z,8.67
2019-02-26T10:18:06.578Z,9.43
2019-02-26T10:20:35.661Z,12.43
2019-02-26T10:23:06.363Z,16.03
2019-02-26T10:25:38.640Z,16.60
2019-02-26T10:28:11.018Z,10.70
2019-02-26T10:30:40.961Z,10.60
2019-02-26T10:33:10.108Z,8.97
2019-02-26T10:35:44.381Z,9.70
2019-02-26T10:38:12.591Z,12.30
2019-02-26T10:40:53.525Z,12.90
2019-02-26T10:43:12.931Z,13.40
2019-02-26T10:45:44.813Z,14.07
2019-02-26T10:48:16.206Z,12.30
2019-02-26T10:50:46.979Z,12.13
2019-02-26T10:53:18.875Z,11.90
2019-02-26T10:55:48.911Z,13.20
2019-02-26T10:58:17.679Z,14.80
2019-02-26T11:00:50.642Z,14.97
2019-02-26T11:03:20.259Z,14.20
2019-02-26T11:05:52.009Z,16.03
2019-02-26T11:08:20.790Z,15.90
2019-02-26T11:10:52.191Z,16.57
2019-02-26T11:13:23.068Z,16.00
2019-02-26T11:15:53.984Z,16.60
2019-02-26T11:18:23.495Z,17.20
2019-02-26T11:20:56.150Z,18.30
2019-02-26T11:23:30.872Z,18.83
2019-02-26T11:25:58.001Z,18.30
2019-02-26T11:28:32.737Z,17.50
2019-02-26T11:31:01.996Z,17.70
2019-02-26T11:33:31.428Z,18.97
2019-02-26T11:36:03.088Z,18.90
2019-02-26T11:38:39.024Z,18.40
2019-02-26T11:41:15.859Z,20.13
2019-02-26T11:43:47.640Z,18.70
2019-02-26T11:46:16.672Z,17.90
2019-02-26T11:48:47.583Z,19.27
2019-02-26T11:51:41.824Z,16.97
2019-02-26T11:54:14.864Z,18.57
2019-02-26T11:59:45.653Z,19.50
2019-02-26T12:02:25.307Z,18.90
2019-02-26T12:04:50.715Z,18.40
2019-02-26T12:07:19.957Z,18.50
2019-02-26T12:09:58.426Z,15.70
2019-02-26T12:12:28.880Z,16.23
2019-02-26T12:15:01.084Z,16.30
2019-02-26T12:17:29.956Z,16.27
2019-02-26T12:20:00.531Z,16.63
2019-02-26T12:22:31.444Z,17.70
2019-02-26T12:25:02.717Z,20.17
2019-02-26T12:27:32.470Z,17.87
2019-02-26T12:30:01.349Z,19.17
2019-02-26T12:32:33.259Z,18.30
2019-02-26T12:35:03.910Z,18.43
2019-02-26T12:37:33.868Z,17.13
2019-02-26T12:40:02.900Z,15.90
2019-02-26T12:42:33.519Z,16.90
2019-02-26T12:45:13.992Z,16.73
2019-02-26T12:47:43.004Z,16.40
2019-02-26T12:50:19.665Z,17.57
2019-02-26T12:52:51.572Z,16.50
2019-02-26T12:55:22.327Z,17.63
2019-02-26T12:57:52.797Z,15.10
2019-02-26T13:00:24.614Z,16.13
2019-02-26T13:02:55.937Z,14.87
2019-02-26T13:05:26.718Z,13.57
2019-02-26T13:08:01.276Z,13.80
2019-02-26T13:10:33.790Z,13.93
2019-02-26T13:16:13.131Z,15.20
2019-02-26T13:18:47.821Z,14.60
2019-02-26T13:21:17.152Z,13.37
2019-02-26T13:23:49.016Z,14.50
2019-02-26T13:26:21.845Z,14.27
2019-02-26T13:28:53.020Z,14.27
2019-02-26T13:31:22.487Z,14.50
2019-02-26T13:34:03.987Z,14.23
2019-02-26T13:39:38.453Z,15.03
2019-02-26T13:42:03.714Z,16.90
2019-02-26T13:44:30.898Z,16.77
2019-02-26T13:47:04.108Z,15.67
2019-02-26T13:49:34.729Z,15.50
2019-02-26T13:52:30.168Z,15.53
2019-02-26T13:55:04.284Z,16.67
2019-02-26T13:58:11.924Z,17.20
2019-02-26T14:00:14.267Z,16.40
2019-02-26T14:05:38.160Z,16.80
2019-02-26T14:08:07.324Z,16.57
2019-02-26T14:10:46.321Z,17.10
2019-02-26T14:13:21.039Z,17.57
2019-02-26T14:15:51.228Z,16.30
2019-02-26T14:18:19.947Z,16.40
2019-02-26T14:20:48.687Z,15.07
2019-02-26T14:23:17.441Z,16.63
2019-02-26T14:26:43.183Z,14.40
2019-02-26T14:28:32.262Z,15.27
2019-02-26T14:31:01.440Z,14.70
2019-02-26T14:33:32.138Z,13.63
2019-02-26T14:36:01.217Z,14.60
2019-02-26T14:38:30.378Z,13.50
2019-02-26T14:41:00.107Z,14.83
2019-02-26T14:43:30.569Z,13.47
2019-02-26T14:46:01.401Z,15.00
2019-02-26T14:48:30.301Z,15.00
2019-02-26T14:50:59.039Z,13.60
2019-02-26T14:53:29.421Z,15.27
2019-02-26T14:56:04.209Z,16.83
2019-02-26T14:58:34.421Z,15.60
2019-02-26T15:01:04.794Z,14.30
2019-02-26T15:03:36.223Z,15.03
2019-02-26T15:06:05.167Z,15.60
2019-02-26T15:08:36.627Z,14.70
2019-02-26T15:11:11.310Z,15.90
2019-02-26T15:13:37.366Z,16.07
2019-02-26T15:16:06.144Z,17.50
2019-02-26T15:18:36.343Z,13.97
2019-02-26T15:21:05.165Z,14.43
2019-02-26T15:23:33.954Z,14.37
2019-02-26T15:26:02.805Z,14.67
2019-02-26T15:28:34.395Z,14.30
2019-02-26T15:31:03.635Z,14.60
2019-02-26T15:33:32.484Z,14.23
2019-02-26T15:36:02.059Z,14.73
2019-02-26T15:38:30.904Z,16.57
2019-02-26T15:41:00.722Z,15.90
2019-02-26T15:43:30.176Z,16.27
2019-02-26T15:45:59.760Z,17.20
2019-02-26T15:48:29.009Z,15.57
2019-02-26T15:50:57.699Z,15.83
2019-02-26T15:53:27.619Z,14.07
2019-02-26T15:55:59.188Z,14.20
2019-02-26T15:58:26.981Z,15.63
2019-02-26T16:00:55.986Z,13.60
2019-02-26T16:03:24.917Z,11.97
2019-02-26T16:05:54.062Z,11.80
2019-02-26T16:08:23.016Z,13.03
2019-02-26T16:10:51.840Z,12.90
2019-02-26T16:13:23.331Z,16.03
2019-02-26T16:15:52.968Z,13.93
2019-02-26T16:18:22.565Z,13.43
2019-02-26T16:20:51.349Z,16.23
2019-02-26T16:23:20.271Z,15.57
2019-02-26T16:25:49.143Z,14.57
2019-02-26T16:28:19.591Z,16.27
2019-02-26T16:30:48.615Z,15.47
2019-02-26T16:33:18.055Z,16.40
2019-02-26T16:35:47.556Z,17.50
2019-02-26T16:38:16.458Z,16.50
2019-02-26T16:40:46.615Z,15.27
2019-02-26T16:43:17.953Z,16.30
2019-02-26T16:45:46.896Z,14.87
2019-02-26T16:48:15.792Z,15.47
2019-02-26T16:50:46.456Z,17.40
2019-02-26T16:53:15.596Z,15.80
2019-02-26T16:55:48.755Z,15.30
2019-02-26T16:58:16.512Z,16.77
2019-02-26T17:00:46.544Z,16.33
2019-02-26T17:03:17.327Z,17.03
2019-02-26T17:05:50.331Z,15.90
2019-02-26T17:08:20.641Z,14.80
2019-02-26T17:10:49.530Z,15.23
2019-02-26T17:13:22.018Z,15.30
2019-02-26T17:15:51.134Z,14.73
2019-02-26T17:18:20.017Z,17.27
2019-02-26T17:20:49.775Z,17.47
2019-02-26T17:23:18.759Z,17.10
2019-02-26T17:25:47.596Z,17.50
2019-02-26T17:28:22.146Z,18.50
2019-02-26T17:30:57.764Z,17.00
2019-02-26T17:36:17.130Z,15.47
2019-02-26T17:38:45.986Z,16.87
2019-02-26T17:41:15.513Z,18.47
2019-02-26T17:43:44.511Z,16.83
2019-02-26T17:46:13.372Z,18.37
2019-02-26T17:48:43.703Z,20.03
2019-02-26T17:51:12.633Z,18.80
2019-02-26T17:53:41.577Z,17.90
2019-02-26T17:56:11.650Z,18.30
2019-02-26T17:58:41.726Z,17.60
2019-02-26T18:01:11.953Z,25.07
2019-02-26T18:03:44.595Z,21.83
2019-02-26T18:06:13.180Z,20.07
2019-02-26T18:08:43.581Z,19.60
2019-02-26T18:11:12.423Z,23.30
2019-02-26T18:13:41.243Z,20.53
2019-02-26T18:16:10.115Z,20.40
2019-02-26T18:18:38.950Z,21.97
2019-02-26T18:21:07.802Z,19.20
2019-02-26T18:23:40.734Z,19.73
2019-02-26T18:26:10.318Z,23.57
2019-02-26T18:28:39.112Z,24.57
2019-02-26T18:31:08.184Z,21.13
2019-02-26T18:33:37.477Z,18.87
2019-02-26T18:36:06.476Z,20.50
2019-02-26T18:38:40.337Z,18.20
2019-02-26T18:41:10.399Z,20.57
2019-02-26T18:43:39.717Z,21.27
2019-02-26T18:46:08.580Z,19.50
2019-02-26T18:48:39.052Z,22.23
2019-02-26T18:51:08.041Z,21.60
2019-02-26T18:53:37.456Z,24.53
2019-02-26T18:56:06.277Z,26.37
2019-02-26T18:58:35.167Z,25.30
2019-02-26T19:01:04.056Z,25.70
2019-02-26T19:03:32.833Z,26.10
2019-02-26T19:06:03.650Z,26.30
2019-02-26T19:08:34.522Z,22.60
2019-02-26T19:11:04.508Z,21.90
2019-02-26T19:13:35.662Z,24.00
2019-02-26T19:16:07.067Z,23.77
2019-02-26T19:18:38.789Z,24.30
2019-02-26T19:21:09.266Z,25.13
2019-02-26T19:23:39.569Z,26.37
2019-02-26T19:26:08.358Z,26.67
2019-02-26T19:28:37.238Z,27.00
2019-02-26T19:31:09.584Z,26.70
2019-02-26T19:33:37.938Z,27.03
2019-02-26T19:36:12.970Z,26.57
2019-02-26T19:38:47.144Z,26.20
2019-02-26T19:41:15.144Z,25.87
2019-02-26T19:43:44.438Z,26.03
2019-02-26T19:46:18.836Z,24.60
2019-02-26T19:48:47.684Z,25.53
2019-02-26T19:51:21.892Z,26.30
2019-02-26T19:53:48.598Z,25.50
2019-02-26T19:56:17.435Z,25.43
2019-02-26T19:58:47.689Z,24.53
2019-02-26T20:01:16.497Z,22.50
2019-02-26T20:03:46.509Z,22.43
2019-02-26T20:06:18.601Z,25.27
2019-02-26T20:08:47.490Z,22.40
2019-02-26T20:11:17.804Z,23.33
2019-02-26T20:13:46.624Z,24.27
2019-02-26T20:16:15.490Z,24.80
2019-02-26T20:18:45.607Z,23.33
2019-02-26T20:21:16.889Z,26.97
2019-02-26T20:23:45.289Z,24.20
2019-02-26T20:26:16.493Z,23.43
2019-02-26T20:28:46.289Z,21.57
2019-02-26T20:31:16.956Z,23.83
2019-02-26T20:33:46.203Z,23.80
2019-02-26T20:36:19.744Z,25.93
2019-02-26T20:38:49.038Z,28.53
2019-02-26T20:41:22.220Z,29.20
2019-02-26T20:43:52.902Z,27.43
2019-02-26T20:46:24.952Z,26.77
2019-02-26T20:48:52.327Z,26.97
2019-02-26T20:51:21.190Z,26.30
2019-02-26T20:53:50.665Z,27.27
2019-02-26T20:56:19.530Z,26.40
2019-02-26T20:58:49.760Z,28.00
2019-02-26T21:01:18.499Z,24.67
2019-02-26T21:03:47.405Z,26.07
2019-02-26T21:06:17.991Z,26.43
2019-02-26T21:08:47.374Z,27.67
2019-02-26T21:11:22.353Z,28.80
2019-02-26T21:13:48.529Z,30.27
2019-02-26T21:16:18.601Z,27.80
2019-02-26T21:18:49.471Z,28.87
2019-02-26T21:21:18.356Z,27.50
2019-02-26T21:23:47.412Z,28.80
2019-02-26T21:26:19.291Z,28.03
2019-02-26T21:28:47.179Z,28.87
2019-02-26T21:31:18.879Z,29.07
2019-02-26T21:33:53.662Z,28.70
2019-02-26T21:36:22.820Z,32.20
2019-02-26T21:38:52.492Z,28.57
2019-02-26T21:41:23.478Z,28.70
2019-02-26T21:43:56.199Z,28.40
2019-02-26T21:46:25.309Z,30.10
2019-02-26T21:48:54.110Z,30.93
2019-02-26T21:51:23.026Z,31.40
2019-02-26T21:53:51.882Z,27.50
2019-02-26T21:56:22.125Z,27.20
2019-02-26T21:58:50.967Z,29.70
2019-02-26T22:01:19.772Z,31.00
2019-02-26T22:03:50.977Z,31.87
2019-02-26T22:06:19.770Z,34.10
2019-02-26T22:08:50.323Z,36.20
2019-02-26T22:11:19.209Z,36.43
2019-02-26T22:13:48.178Z,33.93
2019-02-26T22:16:17.715Z,34.30
2019-02-26T22:18:47.517Z,34.67
2019-02-26T22:21:18.727Z,34.60
2019-02-26T22:23:47.312Z,31.97
2019-02-26T22:26:17.471Z,31.80
2019-02-26T22:28:46.966Z,30.77
2019-02-26T22:31:16.916Z,26.83
2019-02-26T22:33:46.528Z,30.60
2019-02-26T22:36:16.372Z,29.90
2019-02-26T22:38:49.053Z,32.53
2019-02-26T22:41:19.677Z,31.67
2019-02-26T22:43:48.550Z,33.00
2019-02-26T22:46:17.424Z,30.70
2019-02-26T22:48:47.838Z,33.40
2019-02-26T22:51:18.505Z,32.23
2019-02-26T22:53:47.399Z,32.47
2019-02-26T22:56:16.896Z,29.70
2019-02-26T22:58:45.751Z,29.50
2019-02-26T23:01:18.564Z,31.13
2019-02-26T23:03:48.423Z,30.10
2019-02-26T23:06:17.935Z,31.10
2019-02-26T23:08:46.725Z,27.73
2019-02-26T23:11:16.287Z,29.23
2019-02-26T23:13:48.019Z,29.43
2019-02-26T23:16:18.531Z,29.37
2019-02-26T23:18:48.848Z,28.37
2019-02-26T23:21:18.548Z,29.77
2019-02-26T23:23:48.791Z,28.90
2019-02-26T23:26:18.143Z,29.30
2019-02-26T23:28:47.278Z,28.87
2019-02-26T23:31:17.701Z,28.00
2019-02-26T23:33:48.551Z,30.57
2019-02-26T23:36:17.834Z,30.10
2019-02-26T23:38:47.304Z,29.37
2019-02-26T23:41:16.676Z,27.97
2019-02-26T23:43:46.917Z,28.30
2019-02-26T23:46:15.706Z,27.43
2019-02-26T23:48:44.462Z,28.10
2019-02-26T23:51:13.296Z,27.00
2019-02-26T23:53:42.222Z,29.37
2019-02-26T23:56:11.628Z,29.13
2019-02-26T23:58:40.540Z,29.30
